sensor_id;sensor_type;location;lat;lon;timestamp;temperature;humidity
3701;DHT22;1866;48.374;10.766;2022-11-15T00:01:59;3.80;99.90
3701;DHT22;1866;48.374;10.766;2022-11-15T00:04:27;3.80;99.90
3701;DHT22;1866;48.374;10.766;2022-11-15T00:06:54;4.00;99.90
3701;DHT22;1866;48.374;10.766;2022-11-15T00:09:21;4.00;99.90
3701;DHT22;1866;48.374;10.766;2022-11-15T00:11:48;4.10;99.90
3701;DHT22;1866;48.374;10.766;2022-11-15T00:14:15;4.10;99.90
3701;DHT22;1866;48.374;10.766;2022-11-15T00:16:41;3.80;99.90
3701;DHT22;1866;48.374;10.766;2022-11-15T00:19:08;3.50;99.90
3701;DHT22;1866;48.374;10.766;2022-11-15T00:21:37;3.40;99.90
3701;DHT22;1866;48.374;10.766;2022-11-15T00:24:04;3.40;99.90
3701;DHT22;1866;48.374;10.766;2022-11-15T00:26:30;3.50;99.90
3701;DHT22;1866;48.374;10.766;2022-11-15T00:28:57;3.70;99.90
3701;DHT22;1866;48.374;10.766;2022-11-15T00:31:24;3.90;99.90
3701;DHT22;1866;48.374;10.766;2022-11-15T00:33:51;3.80;99.90
3701;DHT22;1866;48.374;10.766;2022-11-15T00:36:18;3.70;99.90
3701;DHT22;1866;48.374;10.766;2022-11-15T00:38:46;3.40;99.90
3701;DHT22;1866;48.374;10.766;2022-11-15T00:41:12;3.20;99.90
3701;DHT22;1866;48.374;10.766;2022-11-15T00:43:39;3.20;99.90
3701;DHT22;1866;48.374;10.766;2022-11-15T00:46:08;3.20;99.90
3701;DHT22;1866;48.374;10.766;2022-11-15T00:48:36;3.40;99.90
3701;DHT22;1866;48.374;10.766;2022-11-15T00:51:02;3.60;99.90
3701;DHT22;1866;48.374;10.766;2022-11-15T00:53:29;3.60;99.90
3701;DHT22;1866;48.374;10.766;2022-11-15T00:55:57;3.60;99.90
3701;DHT22;1866;48.374;10.766;2022-11-15T00:58:24;3.80;99.90
3701;DHT22;1866;48.374;10.766;2022-11-15T01:00:51;3.80;99.90
3701;DHT22;1866;48.374;10.766;2022-11-15T01:03:18;3.70;99.90
3701;DHT22;1866;48.374;10.766;2022-11-15T01:05:45;3.40;99.90
3701;DHT22;1866;48.374;10.766;2022-11-15T01:08:12;3.50;99.90
3701;DHT22;1866;48.374;10.766;2022-11-15T01:10:39;3.30;99.90
3701;DHT22;1866;48.374;10.766;2022-11-15T01:13:08;3.10;99.90
3701;DHT22;1866;48.374;10.766;2022-11-15T01:15:39;2.80;99.90
3701;DHT22;1866;48.374;10.766;2022-11-15T01:18:06;3.20;99.90
3701;DHT22;1866;48.374;10.766;2022-11-15T01:20:33;3.50;99.90
3701;DHT22;1866;48.374;10.766;2022-11-15T01:23:00;3.50;99.90
3701;DHT22;1866;48.374;10.766;2022-11-15T01:25:27;3.10;99.90
3701;DHT22;1866;48.374;10.766;2022-11-15T01:27:57;3.10;99.90
3701;DHT22;1866;48.374;10.766;2022-11-15T01:30:25;3.00;99.90
3701;DHT22;1866;48.374;10.766;2022-11-15T01:32:51;3.20;99.90
3701;DHT22;1866;48.374;10.766;2022-11-15T01:35:18;3.00;99.90
3701;DHT22;1866;48.374;10.766;2022-11-15T01:37:45;2.80;99.90
3701;DHT22;1866;48.374;10.766;2022-11-15T01:40:12;2.70;99.90
3701;DHT22;1866;48.374;10.766;2022-11-15T01:42:39;3.00;99.90
3701;DHT22;1866;48.374;10.766;2022-11-15T01:45:10;2.90;99.90
3701;DHT22;1866;48.374;10.766;2022-11-15T01:47:44;2.70;99.90
3701;DHT22;1866;48.374;10.766;2022-11-15T01:50:16;2.40;99.90
3701;DHT22;1866;48.374;10.766;2022-11-15T01:52:43;2.30;99.90
3701;DHT22;1866;48.374;10.766;2022-11-15T01:55:14;2.20;99.90
3701;DHT22;1866;48.374;10.766;2022-11-15T01:57:46;2.20;99.90
3701;DHT22;1866;48.374;10.766;2022-11-15T02:00:14;2.70;99.90
3701;DHT22;1866;48.374;10.766;2022-11-15T02:02:43;2.70;99.90
3701;DHT22;1866;48.374;10.766;2022-11-15T02:05:10;2.60;99.90
3701;DHT22;1866;48.374;10.766;2022-11-15T02:07:37;2.70;99.90
3701;DHT22;1866;48.374;10.766;2022-11-15T02:10:08;2.60;99.90
3701;DHT22;1866;48.374;10.766;2022-11-15T02:12:35;2.50;99.90
3701;DHT22;1866;48.374;10.766;2022-11-15T02:15:04;2.70;99.90
3701;DHT22;1866;48.374;10.766;2022-11-15T02:17:46;2.70;99.90
3701;DHT22;1866;48.374;10.766;2022-11-15T02:23:37;2.20;99.90
3701;DHT22;1866;48.374;10.766;2022-11-15T02:26:31;2.20;99.90
3701;DHT22;1866;48.374;10.766;2022-11-15T02:29:04;2.30;99.90
3701;DHT22;1866;48.374;10.766;2022-11-15T02:31:40;2.40;99.90
3701;DHT22;1866;48.374;10.766;2022-11-15T02:34:17;2.60;99.90
3701;DHT22;1866;48.374;10.766;2022-11-15T02:36:52;2.70;99.90
3701;DHT22;1866;48.374;10.766;2022-11-15T02:39:25;2.50;99.90
3701;DHT22;1866;48.374;10.766;2022-11-15T02:42:00;2.50;99.90
3701;DHT22;1866;48.374;10.766;2022-11-15T02:44:33;2.60;99.90
3701;DHT22;1866;48.374;10.766;2022-11-15T02:47:03;2.70;99.90
3701;DHT22;1866;48.374;10.766;2022-11-15T02:49:41;2.80;99.90
3701;DHT22;1866;48.374;10.766;2022-11-15T02:52:08;2.70;99.90
3701;DHT22;1866;48.374;10.766;2022-11-15T02:54:35;2.60;99.90
3701;DHT22;1866;48.374;10.766;2022-11-15T02:57:05;2.60;99.90
3701;DHT22;1866;48.374;10.766;2022-11-15T03:00:01;2.90;99.90
3701;DHT22;1866;48.374;10.766;2022-11-15T03:02:41;2.60;99.90
3701;DHT22;1866;48.374;10.766;2022-11-15T03:05:17;2.10;99.90
3701;DHT22;1866;48.374;10.766;2022-11-15T03:07:50;1.60;99.90
3701;DHT22;1866;48.374;10.766;2022-11-15T03:10:22;1.60;99.90
3701;DHT22;1866;48.374;10.766;2022-11-15T03:12:56;1.50;99.90
3701;DHT22;1866;48.374;10.766;2022-11-15T03:15:28;2.00;99.90
3701;DHT22;1866;48.374;10.766;2022-11-15T03:18:00;2.30;99.90
3701;DHT22;1866;48.374;10.766;2022-11-15T03:20:28;2.40;99.90
3701;DHT22;1866;48.374;10.766;2022-11-15T03:22:59;2.60;99.90
3701;DHT22;1866;48.374;10.766;2022-11-15T03:25:28;2.40;99.90
3701;DHT22;1866;48.374;10.766;2022-11-15T03:27:57;2.00;99.90
3701;DHT22;1866;48.374;10.766;2022-11-15T03:30:25;2.20;99.90
3701;DHT22;1866;48.374;10.766;2022-11-15T03:32:56;1.80;99.90
3701;DHT22;1866;48.374;10.766;2022-11-15T03:35:25;1.90;99.90
3701;DHT22;1866;48.374;10.766;2022-11-15T03:37:58;1.90;99.90
3701;DHT22;1866;48.374;10.766;2022-11-15T03:40:33;2.00;99.90
3701;DHT22;1866;48.374;10.766;2022-11-15T03:43:05;2.10;99.90
3701;DHT22;1866;48.374;10.766;2022-11-15T03:45:37;1.90;99.90
3701;DHT22;1866;48.374;10.766;2022-11-15T03:48:11;2.00;99.90
3701;DHT22;1866;48.374;10.766;2022-11-15T03:50:39;2.20;99.90
3701;DHT22;1866;48.374;10.766;2022-11-15T03:53:07;2.10;99.90
3701;DHT22;1866;48.374;10.766;2022-11-15T03:55:34;2.20;99.90
3701;DHT22;1866;48.374;10.766;2022-11-15T03:58:01;2.30;99.90
3701;DHT22;1866;48.374;10.766;2022-11-15T04:00:29;2.20;98.50
3701;DHT22;1866;48.374;10.766;2022-11-15T04:02:56;2.10;99.90
3701;DHT22;1866;48.374;10.766;2022-11-15T04:05:25;2.10;99.90
3701;DHT22;1866;48.374;10.766;2022-11-15T04:07:52;2.00;99.90
3701;DHT22;1866;48.374;10.766;2022-11-15T04:10:18;2.00;99.90
3701;DHT22;1866;48.374;10.766;2022-11-15T04:12:46;2.00;99.90
3701;DHT22;1866;48.374;10.766;2022-11-15T04:15:14;1.60;99.90
3701;DHT22;1866;48.374;10.766;2022-11-15T04:17:44;1.50;99.90
3701;DHT22;1866;48.374;10.766;2022-11-15T04:20:14;1.50;99.90
3701;DHT22;1866;48.374;10.766;2022-11-15T04:23:01;1.30;99.90
3701;DHT22;1866;48.374;10.766;2022-11-15T04:26:02;1.10;99.90
3701;DHT22;1866;48.374;10.766;2022-11-15T04:28:29;1.10;99.90
3701;DHT22;1866;48.374;10.766;2022-11-15T04:30:56;1.40;99.90
3701;DHT22;1866;48.374;10.766;2022-11-15T04:33:23;1.60;99.90
3701;DHT22;1866;48.374;10.766;2022-11-15T04:35:50;1.60;99.90
3701;DHT22;1866;48.374;10.766;2022-11-15T04:38:34;1.80;99.90
3701;DHT22;1866;48.374;10.766;2022-11-15T04:41:01;1.90;99.90
3701;DHT22;1866;48.374;10.766;2022-11-15T04:43:28;1.90;99.90
3701;DHT22;1866;48.374;10.766;2022-11-15T04:45:55;2.10;99.90
3701;DHT22;1866;48.374;10.766;2022-11-15T04:48:22;2.00;99.90
3701;DHT22;1866;48.374;10.766;2022-11-15T04:50:49;1.60;99.90
3701;DHT22;1866;48.374;10.766;2022-11-15T04:53:15;1.40;99.90
3701;DHT22;1866;48.374;10.766;2022-11-15T04:55:46;1.60;99.90
3701;DHT22;1866;48.374;10.766;2022-11-15T04:58:13;1.50;99.90
3701;DHT22;1866;48.374;10.766;2022-11-15T05:00:39;1.30;99.90
3701;DHT22;1866;48.374;10.766;2022-11-15T05:03:08;1.50;99.90
3701;DHT22;1866;48.374;10.766;2022-11-15T05:05:52;1.40;99.90
3701;DHT22;1866;48.374;10.766;2022-11-15T05:08:19;1.20;99.90
3701;DHT22;1866;48.374;10.766;2022-11-15T05:10:47;1.40;99.90
3701;DHT22;1866;48.374;10.766;2022-11-15T05:13:14;1.30;99.90
3701;DHT22;1866;48.374;10.766;2022-11-15T05:15:41;1.10;99.90
3701;DHT22;1866;48.374;10.766;2022-11-15T05:18:08;1.40;99.90
3701;DHT22;1866;48.374;10.766;2022-11-15T05:20:35;1.60;99.90
3701;DHT22;1866;48.374;10.766;2022-11-15T05:23:02;1.30;99.90
3701;DHT22;1866;48.374;10.766;2022-11-15T05:25:28;1.40;99.90
3701;DHT22;1866;48.374;10.766;2022-11-15T05:27:57;1.30;99.90
3701;DHT22;1866;48.374;10.766;2022-11-15T05:30:24;1.30;99.90
3701;DHT22;1866;48.374;10.766;2022-11-15T05:32:50;1.40;99.90
3701;DHT22;1866;48.374;10.766;2022-11-15T05:35:21;1.30;99.90
3701;DHT22;1866;48.374;10.766;2022-11-15T05:37:51;1.30;99.90
3701;DHT22;1866;48.374;10.766;2022-11-15T05:40:18;1.40;99.90
3701;DHT22;1866;48.374;10.766;2022-11-15T05:42:46;1.30;99.90
3701;DHT22;1866;48.374;10.766;2022-11-15T05:45:15;1.30;99.90
3701;DHT22;1866;48.374;10.766;2022-11-15T05:47:43;1.30;99.90
3701;DHT22;1866;48.374;10.766;2022-11-15T05:50:11;1.20;99.90
3701;DHT22;1866;48.374;10.766;2022-11-15T05:52:39;1.30;99.90
3701;DHT22;1866;48.374;10.766;2022-11-15T05:55:07;1.40;99.90
3701;DHT22;1866;48.374;10.766;2022-11-15T05:57:36;1.40;99.90
3701;DHT22;1866;48.374;10.766;2022-11-15T06:00:04;1.40;99.90
3701;DHT22;1866;48.374;10.766;2022-11-15T06:02:32;1.30;99.90
3701;DHT22;1866;48.374;10.766;2022-11-15T06:05:00;1.10;99.90
3701;DHT22;1866;48.374;10.766;2022-11-15T06:07:28;0.90;99.90
3701;DHT22;1866;48.374;10.766;2022-11-15T06:09:55;1.00;99.90
3701;DHT22;1866;48.374;10.766;2022-11-15T06:12:22;1.20;99.90
3701;DHT22;1866;48.374;10.766;2022-11-15T06:14:50;1.10;99.90
3701;DHT22;1866;48.374;10.766;2022-11-15T06:17:17;1.10;99.90
3701;DHT22;1866;48.374;10.766;2022-11-15T06:19:45;0.90;99.90
3701;DHT22;1866;48.374;10.766;2022-11-15T06:22:11;0.80;99.90
3701;DHT22;1866;48.374;10.766;2022-11-15T06:24:38;0.50;99.90
3701;DHT22;1866;48.374;10.766;2022-11-15T06:27:06;0.60;99.90
3701;DHT22;1866;48.374;10.766;2022-11-15T06:29:33;0.90;99.90
3701;DHT22;1866;48.374;10.766;2022-11-15T06:31:59;1.10;99.90
3701;DHT22;1866;48.374;10.766;2022-11-15T06:34:27;1.10;99.90
3701;DHT22;1866;48.374;10.766;2022-11-15T06:36:55;1.20;99.90
3701;DHT22;1866;48.374;10.766;2022-11-15T06:39:22;1.10;99.90
3701;DHT22;1866;48.374;10.766;2022-11-15T06:41:50;1.00;99.90
3701;DHT22;1866;48.374;10.766;2022-11-15T06:44:17;1.10;99.90
3701;DHT22;1866;48.374;10.766;2022-11-15T06:46:44;1.00;99.90
3701;DHT22;1866;48.374;10.766;2022-11-15T06:49:10;1.00;99.90
3701;DHT22;1866;48.374;10.766;2022-11-15T06:51:37;0.90;99.90
3701;DHT22;1866;48.374;10.766;2022-11-15T06:54:06;0.80;99.90
3701;DHT22;1866;48.374;10.766;2022-11-15T06:56:33;0.80;99.90
3701;DHT22;1866;48.374;10.766;2022-11-15T06:59:01;0.80;99.90
3701;DHT22;1866;48.374;10.766;2022-11-15T07:01:28;0.90;99.90
3701;DHT22;1866;48.374;10.766;2022-11-15T07:03:54;1.00;99.90
3701;DHT22;1866;48.374;10.766;2022-11-15T07:06:21;1.30;99.90
3701;DHT22;1866;48.374;10.766;2022-11-15T07:08:48;1.40;99.90
3701;DHT22;1866;48.374;10.766;2022-11-15T07:11:16;1.60;99.90
3701;DHT22;1866;48.374;10.766;2022-11-15T07:13:43;1.70;99.90
3701;DHT22;1866;48.374;10.766;2022-11-15T07:16:10;1.80;99.90
3701;DHT22;1866;48.374;10.766;2022-11-15T07:18:39;1.80;99.90
3701;DHT22;1866;48.374;10.766;2022-11-15T07:21:08;1.70;99.90
3701;DHT22;1866;48.374;10.766;2022-11-15T07:23:36;1.70;99.90
3701;DHT22;1866;48.374;10.766;2022-11-15T07:26:03;1.80;99.90
3701;DHT22;1866;48.374;10.766;2022-11-15T07:28:32;1.80;99.90
3701;DHT22;1866;48.374;10.766;2022-11-15T07:31:02;1.90;99.90
3701;DHT22;1866;48.374;10.766;2022-11-15T07:33:29;2.10;99.90
3701;DHT22;1866;48.374;10.766;2022-11-15T07:35:58;2.10;99.90
3701;DHT22;1866;48.374;10.766;2022-11-15T07:38:27;2.20;99.90
3701;DHT22;1866;48.374;10.766;2022-11-15T07:40:56;2.10;99.90
3701;DHT22;1866;48.374;10.766;2022-11-15T07:43:24;2.20;99.90
3701;DHT22;1866;48.374;10.766;2022-11-15T07:45:52;2.30;99.90
3701;DHT22;1866;48.374;10.766;2022-11-15T07:48:19;2.30;99.90
3701;DHT22;1866;48.374;10.766;2022-11-15T07:50:46;2.40;99.90
3701;DHT22;1866;48.374;10.766;2022-11-15T07:53:13;2.60;99.90
3701;DHT22;1866;48.374;10.766;2022-11-15T07:55:41;2.70;99.90
3701;DHT22;1866;48.374;10.766;2022-11-15T07:58:10;2.80;99.90
3701;DHT22;1866;48.374;10.766;2022-11-15T08:00:37;3.10;99.90
3701;DHT22;1866;48.374;10.766;2022-11-15T08:03:07;3.30;99.90
3701;DHT22;1866;48.374;10.766;2022-11-15T08:05:35;3.30;99.90
3701;DHT22;1866;48.374;10.766;2022-11-15T08:08:02;3.30;99.90
3701;DHT22;1866;48.374;10.766;2022-11-15T08:10:29;3.40;99.90
3701;DHT22;1866;48.374;10.766;2022-11-15T08:12:57;3.60;99.90
3701;DHT22;1866;48.374;10.766;2022-11-15T08:15:25;3.70;99.90
3701;DHT22;1866;48.374;10.766;2022-11-15T08:17:55;3.80;99.90
3701;DHT22;1866;48.374;10.766;2022-11-15T08:20:24;3.90;99.90
3701;DHT22;1866;48.374;10.766;2022-11-15T08:22:51;4.00;99.90
3701;DHT22;1866;48.374;10.766;2022-11-15T08:25:18;4.20;99.90
3701;DHT22;1866;48.374;10.766;2022-11-15T08:27:45;4.30;99.90
3701;DHT22;1866;48.374;10.766;2022-11-15T08:30:12;4.40;99.90
3701;DHT22;1866;48.374;10.766;2022-11-15T08:32:42;4.40;99.90
3701;DHT22;1866;48.374;10.766;2022-11-15T08:35:09;4.60;99.90
3701;DHT22;1866;48.374;10.766;2022-11-15T08:37:37;4.70;99.90
3701;DHT22;1866;48.374;10.766;2022-11-15T08:40:05;4.90;99.90
3701;DHT22;1866;48.374;10.766;2022-11-15T08:42:33;5.10;99.90
3701;DHT22;1866;48.374;10.766;2022-11-15T08:44:59;5.20;99.90
3701;DHT22;1866;48.374;10.766;2022-11-15T08:47:27;5.50;99.90
3701;DHT22;1866;48.374;10.766;2022-11-15T08:49:53;5.40;99.90
3701;DHT22;1866;48.374;10.766;2022-11-15T08:52:21;5.60;99.90
3701;DHT22;1866;48.374;10.766;2022-11-15T08:54:49;5.70;99.90
3701;DHT22;1866;48.374;10.766;2022-11-15T08:57:16;5.70;99.90
3701;DHT22;1866;48.374;10.766;2022-11-15T08:59:43;6.00;99.90
3701;DHT22;1866;48.374;10.766;2022-11-15T09:02:12;6.10;96.60
3701;DHT22;1866;48.374;10.766;2022-11-15T09:04:40;6.00;53.60
3701;DHT22;1866;48.374;10.766;2022-11-15T09:07:08;5.90;43.40
3701;DHT22;1866;48.374;10.766;2022-11-15T09:09:35;5.90;24.40
3701;DHT22;1866;48.374;10.766;2022-11-15T09:12:04;6.10;14.00
3701;DHT22;1866;48.374;10.766;2022-11-15T09:14:31;6.30;1.00
3701;DHT22;1866;48.374;10.766;2022-11-15T09:16:59;6.60;1.00
3701;DHT22;1866;48.374;10.766;2022-11-15T09:19:25;6.80;1.00
3701;DHT22;1866;48.374;10.766;2022-11-15T09:21:52;6.90;1.00
3701;DHT22;1866;48.374;10.766;2022-11-15T09:24:19;6.90;1.00
3701;DHT22;1866;48.374;10.766;2022-11-15T09:26:46;7.00;1.00
3701;DHT22;1866;48.374;10.766;2022-11-15T09:29:17;7.00;1.00
3701;DHT22;1866;48.374;10.766;2022-11-15T09:31:43;6.90;1.00
3701;DHT22;1866;48.374;10.766;2022-11-15T09:34:11;6.70;1.00
3701;DHT22;1866;48.374;10.766;2022-11-15T09:36:38;6.70;1.00
3701;DHT22;1866;48.374;10.766;2022-11-15T09:39:05;7.10;1.00
3701;DHT22;1866;48.374;10.766;2022-11-15T09:41:48;7.30;1.00
3701;DHT22;1866;48.374;10.766;2022-11-15T09:44:42;7.60;1.00
3701;DHT22;1866;48.374;10.766;2022-11-15T09:47:30;7.70;1.00
3701;DHT22;1866;48.374;10.766;2022-11-15T09:50:07;7.80;1.00
3701;DHT22;1866;48.374;10.766;2022-11-15T09:52:36;7.80;1.00
3701;DHT22;1866;48.374;10.766;2022-11-15T09:55:07;7.90;1.00
3701;DHT22;1866;48.374;10.766;2022-11-15T09:57:39;7.80;1.00
3701;DHT22;1866;48.374;10.766;2022-11-15T10:00:15;7.70;1.00
3701;DHT22;1866;48.374;10.766;2022-11-15T10:02:55;7.60;1.00
3701;DHT22;1866;48.374;10.766;2022-11-15T10:05:25;7.80;1.00
3701;DHT22;1866;48.374;10.766;2022-11-15T10:07:58;7.80;1.00
3701;DHT22;1866;48.374;10.766;2022-11-15T10:10:29;8.40;1.00
3701;DHT22;1866;48.374;10.766;2022-11-15T10:12:58;8.50;1.00
3701;DHT22;1866;48.374;10.766;2022-11-15T10:15:26;8.60;1.00
3701;DHT22;1866;48.374;10.766;2022-11-15T10:18:17;8.60;1.00
3701;DHT22;1866;48.374;10.766;2022-11-15T10:20:52;8.80;1.00
3701;DHT22;1866;48.374;10.766;2022-11-15T10:23:23;8.80;1.00
3701;DHT22;1866;48.374;10.766;2022-11-15T10:25:52;8.90;1.00
3701;DHT22;1866;48.374;10.766;2022-11-15T10:28:22;8.80;1.00
3701;DHT22;1866;48.374;10.766;2022-11-15T10:30:55;9.10;1.00
3701;DHT22;1866;48.374;10.766;2022-11-15T10:33:32;9.20;1.00
3701;DHT22;1866;48.374;10.766;2022-11-15T10:36:22;9.20;1.00
3701;DHT22;1866;48.374;10.766;2022-11-15T10:38:56;9.30;1.00
3701;DHT22;1866;48.374;10.766;2022-11-15T10:41:30;9.20;1.00
3701;DHT22;1866;48.374;10.766;2022-11-15T10:44:19;9.40;1.00
3701;DHT22;1866;48.374;10.766;2022-11-15T10:47:03;9.50;1.00
3701;DHT22;1866;48.374;10.766;2022-11-15T10:49:31;9.60;1.00
3701;DHT22;1866;48.374;10.766;2022-11-15T10:52:01;9.60;1.00
3701;DHT22;1866;48.374;10.766;2022-11-15T10:54:33;9.80;1.00
3701;DHT22;1866;48.374;10.766;2022-11-15T10:57:07;10.00;1.00
3701;DHT22;1866;48.374;10.766;2022-11-15T10:59:36;9.90;1.00
3701;DHT22;1866;48.374;10.766;2022-11-15T11:02:31;9.90;1.00
3701;DHT22;1866;48.374;10.766;2022-11-15T11:04:59;10.00;1.00
3701;DHT22;1866;48.374;10.766;2022-11-15T11:07:29;10.10;1.00
3701;DHT22;1866;48.374;10.766;2022-11-15T11:10:01;10.20;1.00
3701;DHT22;1866;48.374;10.766;2022-11-15T11:12:30;10.30;1.00
3701;DHT22;1866;48.374;10.766;2022-11-15T11:14:59;10.50;1.00
3701;DHT22;1866;48.374;10.766;2022-11-15T11:17:36;10.40;1.00
3701;DHT22;1866;48.374;10.766;2022-11-15T11:20:10;10.50;1.00
3701;DHT22;1866;48.374;10.766;2022-11-15T11:22:45;10.50;1.00
3701;DHT22;1866;48.374;10.766;2022-11-15T11:25:25;10.50;1.00
3701;DHT22;1866;48.374;10.766;2022-11-15T11:28:16;10.40;1.00
3701;DHT22;1866;48.374;10.766;2022-11-15T11:30:53;10.40;1.00
3701;DHT22;1866;48.374;10.766;2022-11-15T11:33:30;10.60;1.00
3701;DHT22;1866;48.374;10.766;2022-11-15T11:36:05;10.80;1.00
3701;DHT22;1866;48.374;10.766;2022-11-15T11:38:51;10.70;1.00
3701;DHT22;1866;48.374;10.766;2022-11-15T11:44:23;10.90;1.00
3701;DHT22;1866;48.374;10.766;2022-11-15T11:46:55;11.00;1.00
3701;DHT22;1866;48.374;10.766;2022-11-15T11:49:30;10.90;1.00
3701;DHT22;1866;48.374;10.766;2022-11-15T11:52:03;11.10;1.00
3701;DHT22;1866;48.374;10.766;2022-11-15T11:54:40;11.30;1.00
3701;DHT22;1866;48.374;10.766;2022-11-15T11:57:14;11.20;1.00
3701;DHT22;1866;48.374;10.766;2022-11-15T11:59:48;10.80;1.00
3701;DHT22;1866;48.374;10.766;2022-11-15T12:02:20;10.90;1.00
3701;DHT22;1866;48.374;10.766;2022-11-15T12:04:51;11.10;1.00
3701;DHT22;1866;48.374;10.766;2022-11-15T12:07:23;11.10;1.00
3701;DHT22;1866;48.374;10.766;2022-11-15T12:09:55;11.20;1.00
3701;DHT22;1866;48.374;10.766;2022-11-15T12:12:30;10.90;1.00
3701;DHT22;1866;48.374;10.766;2022-11-15T12:15:02;10.90;1.00
3701;DHT22;1866;48.374;10.766;2022-11-15T12:17:31;11.10;1.00
3701;DHT22;1866;48.374;10.766;2022-11-15T12:20:03;11.10;1.00
3701;DHT22;1866;48.374;10.766;2022-11-15T12:22:36;11.30;1.00
3701;DHT22;1866;48.374;10.766;2022-11-15T12:25:08;11.30;1.00
3701;DHT22;1866;48.374;10.766;2022-11-15T12:27:44;11.40;1.00
3701;DHT22;1866;48.374;10.766;2022-11-15T12:30:15;11.10;1.00
3701;DHT22;1866;48.374;10.766;2022-11-15T12:32:51;11.00;1.00
3701;DHT22;1866;48.374;10.766;2022-11-15T12:35:34;11.00;1.00
3701;DHT22;1866;48.374;10.766;2022-11-15T12:38:02;11.00;1.00
3701;DHT22;1866;48.374;10.766;2022-11-15T12:40:36;11.10;1.00
3701;DHT22;1866;48.374;10.766;2022-11-15T12:46:12;11.10;1.00
3701;DHT22;1866;48.374;10.766;2022-11-15T12:48:58;10.90;1.00
3701;DHT22;1866;48.374;10.766;2022-11-15T12:55:01;10.70;1.00
3701;DHT22;1866;48.374;10.766;2022-11-15T12:57:37;10.80;1.00
3701;DHT22;1866;48.374;10.766;2022-11-15T13:03:23;11.60;1.00
3701;DHT22;1866;48.374;10.766;2022-11-15T13:06:03;11.10;1.00
3701;DHT22;1866;48.374;10.766;2022-11-15T13:08:41;11.00;1.00
3701;DHT22;1866;48.374;10.766;2022-11-15T13:11:51;10.90;1.00
3701;DHT22;1866;48.374;10.766;2022-11-15T13:14:41;11.00;1.00
3701;DHT22;1866;48.374;10.766;2022-11-15T13:17:27;10.80;1.00
3701;DHT22;1866;48.374;10.766;2022-11-15T13:20:00;11.20;1.00
3701;DHT22;1866;48.374;10.766;2022-11-15T13:22:27;11.90;1.00
3701;DHT22;1866;48.374;10.766;2022-11-15T13:25:17;11.70;1.00
3701;DHT22;1866;48.374;10.766;2022-11-15T13:27:47;11.60;1.00
3701;DHT22;1866;48.374;10.766;2022-11-15T13:30:19;11.60;1.00
3701;DHT22;1866;48.374;10.766;2022-11-15T13:32:46;11.50;1.00
3701;DHT22;1866;48.374;10.766;2022-11-15T13:35:20;11.40;1.00
3701;DHT22;1866;48.374;10.766;2022-11-15T13:37:47;11.30;1.00
3701;DHT22;1866;48.374;10.766;2022-11-15T13:40:26;11.10;1.00
3701;DHT22;1866;48.374;10.766;2022-11-15T13:42:57;11.00;1.00
3701;DHT22;1866;48.374;10.766;2022-11-15T13:45:24;10.80;1.00
3701;DHT22;1866;48.374;10.766;2022-11-15T13:47:54;10.70;1.00
3701;DHT22;1866;48.374;10.766;2022-11-15T13:50:23;10.60;1.00
3701;DHT22;1866;48.374;10.766;2022-11-15T13:52:52;10.70;1.00
3701;DHT22;1866;48.374;10.766;2022-11-15T13:55:21;10.60;1.00
3701;DHT22;1866;48.374;10.766;2022-11-15T13:57:50;10.60;1.00
3701;DHT22;1866;48.374;10.766;2022-11-15T14:00:37;10.50;1.00
3701;DHT22;1866;48.374;10.766;2022-11-15T14:03:15;10.50;1.00
3701;DHT22;1866;48.374;10.766;2022-11-15T14:05:43;10.50;1.00
3701;DHT22;1866;48.374;10.766;2022-11-15T14:08:22;10.40;1.00
3701;DHT22;1866;48.374;10.766;2022-11-15T14:11:11;10.40;1.00
3701;DHT22;1866;48.374;10.766;2022-11-15T14:13:39;10.30;1.00
3701;DHT22;1866;48.374;10.766;2022-11-15T14:16:15;10.30;1.00
3701;DHT22;1866;48.374;10.766;2022-11-15T14:18:46;10.30;1.00
3701;DHT22;1866;48.374;10.766;2022-11-15T14:21:13;10.30;1.00
3701;DHT22;1866;48.374;10.766;2022-11-15T14:23:40;10.20;1.00
3701;DHT22;1866;48.374;10.766;2022-11-15T14:26:25;10.20;1.00
3701;DHT22;1866;48.374;10.766;2022-11-15T14:28:53;10.20;1.00
3701;DHT22;1866;48.374;10.766;2022-11-15T14:31:21;10.20;1.00
3701;DHT22;1866;48.374;10.766;2022-11-15T14:33:48;10.10;1.00
3701;DHT22;1866;48.374;10.766;2022-11-15T14:36:17;9.90;1.00
3701;DHT22;1866;48.374;10.766;2022-11-15T14:38:44;9.90;1.00
3701;DHT22;1866;48.374;10.766;2022-11-15T14:41:18;9.70;1.00
3701;DHT22;1866;48.374;10.766;2022-11-15T14:43:45;9.90;1.00
3701;DHT22;1866;48.374;10.766;2022-11-15T14:46:12;9.90;1.00
3701;DHT22;1866;48.374;10.766;2022-11-15T14:48:41;9.70;1.00
3701;DHT22;1866;48.374;10.766;2022-11-15T14:51:12;9.70;1.00
3701;DHT22;1866;48.374;10.766;2022-11-15T14:53:39;9.60;1.00
3701;DHT22;1866;48.374;10.766;2022-11-15T14:58:40;9.60;1.00
3701;DHT22;1866;48.374;10.766;2022-11-15T15:01:13;9.50;1.00
3701;DHT22;1866;48.374;10.766;2022-11-15T15:03:41;9.40;1.00
3701;DHT22;1866;48.374;10.766;2022-11-15T15:06:09;9.30;1.00
3701;DHT22;1866;48.374;10.766;2022-11-15T15:08:39;9.50;1.00
3701;DHT22;1866;48.374;10.766;2022-11-15T15:11:10;9.30;1.00
3701;DHT22;1866;48.374;10.766;2022-11-15T15:13:41;9.30;1.00
3701;DHT22;1866;48.374;10.766;2022-11-15T15:16:08;9.20;1.00
3701;DHT22;1866;48.374;10.766;2022-11-15T15:18:37;9.10;1.00
3701;DHT22;1866;48.374;10.766;2022-11-15T15:21:18;9.30;1.00
3701;DHT22;1866;48.374;10.766;2022-11-15T15:23:46;9.20;1.00
3701;DHT22;1866;48.374;10.766;2022-11-15T15:26:13;9.10;1.00
3701;DHT22;1866;48.374;10.766;2022-11-15T15:28:39;8.90;1.00
3701;DHT22;1866;48.374;10.766;2022-11-15T15:31:07;8.80;1.00
3701;DHT22;1866;48.374;10.766;2022-11-15T15:33:34;8.60;1.00
3701;DHT22;1866;48.374;10.766;2022-11-15T15:36:01;8.60;1.00
3701;DHT22;1866;48.374;10.766;2022-11-15T15:38:31;8.60;1.00
3701;DHT22;1866;48.374;10.766;2022-11-15T15:40:58;8.50;1.00
3701;DHT22;1866;48.374;10.766;2022-11-15T15:43:27;8.50;1.00
3701;DHT22;1866;48.374;10.766;2022-11-15T15:45:54;8.50;1.00
3701;DHT22;1866;48.374;10.766;2022-11-15T15:48:21;8.50;1.00
3701;DHT22;1866;48.374;10.766;2022-11-15T15:50:48;8.50;1.00
3701;DHT22;1866;48.374;10.766;2022-11-15T15:53:15;8.40;1.00
3701;DHT22;1866;48.374;10.766;2022-11-15T15:55:44;8.40;1.00
3701;DHT22;1866;48.374;10.766;2022-11-15T15:58:11;8.40;1.00
3701;DHT22;1866;48.374;10.766;2022-11-15T16:00:40;8.50;1.00
3701;DHT22;1866;48.374;10.766;2022-11-15T16:03:06;8.50;1.00
3701;DHT22;1866;48.374;10.766;2022-11-15T16:05:34;8.50;1.00
3701;DHT22;1866;48.374;10.766;2022-11-15T16:08:02;8.30;1.00
3701;DHT22;1866;48.374;10.766;2022-11-15T16:10:31;8.30;1.00
3701;DHT22;1866;48.374;10.766;2022-11-15T16:13:06;8.40;1.00
3701;DHT22;1866;48.374;10.766;2022-11-15T16:15:35;8.30;1.00
3701;DHT22;1866;48.374;10.766;2022-11-15T16:18:04;8.10;1.00
3701;DHT22;1866;48.374;10.766;2022-11-15T16:20:36;8.10;1.00
3701;DHT22;1866;48.374;10.766;2022-11-15T16:23:07;8.10;1.00
3701;DHT22;1866;48.374;10.766;2022-11-15T16:25:38;8.00;1.00
3701;DHT22;1866;48.374;10.766;2022-11-15T16:28:17;8.20;1.00
3701;DHT22;1866;48.374;10.766;2022-11-15T16:30:44;8.10;1.00
3701;DHT22;1866;48.374;10.766;2022-11-15T16:33:11;8.10;1.00
3701;DHT22;1866;48.374;10.766;2022-11-15T16:35:38;8.00;1.00
3701;DHT22;1866;48.374;10.766;2022-11-15T16:38:07;7.80;1.00
3701;DHT22;1866;48.374;10.766;2022-11-15T16:40:34;7.80;1.00
3701;DHT22;1866;48.374;10.766;2022-11-15T16:43:01;7.90;1.00
3701;DHT22;1866;48.374;10.766;2022-11-15T16:45:34;8.00;1.00